sensor_id;sensor_type;location;lat;lon;timestamp;pressure;altitude;pressure_sealevel;temperature;humidity
21594;BME280;10959;51.328;7.322;2022-10-31T00:01:53;99271.75;;;17.13;67.06
21594;BME280;10959;51.328;7.322;2022-10-31T00:04:19;99271.88;;;17.11;67.29
21594;BME280;10959;51.328;7.322;2022-10-31T00:06:46;99274.25;;;17.16;67.06
21594;BME280;10959;51.328;7.322;2022-10-31T00:09:12;99266.31;;;17.13;67.07
21594;BME280;10959;51.328;7.322;2022-10-31T00:11:39;99273.63;;;17.12;67.12
21594;BME280;10959;51.328;7.322;2022-10-31T00:14:05;99276.44;;;17.10;67.23
21594;BME280;10959;51.328;7.322;2022-10-31T00:16:32;99273.84;;;17.09;67.17
21594;BME280;10959;51.328;7.322;2022-10-31T00:19:01;99267.50;;;17.08;67.18
21594;BME280;10959;51.328;7.322;2022-10-31T00:21:29;99268.47;;;17.07;67.55
21594;BME280;10959;51.328;7.322;2022-10-31T00:23:57;99262.28;;;17.05;67.71
21594;BME280;10959;51.328;7.322;2022-10-31T00:26:24;99266.75;;;17.06;67.34
21594;BME280;10959;51.328;7.322;2022-10-31T00:28:50;99274.91;;;17.06;67.70
21594;BME280;10959;51.328;7.322;2022-10-31T00:31:17;99267.72;;;17.05;67.52
21594;BME280;10959;51.328;7.322;2022-10-31T00:33:43;99273.16;;;17.05;67.59
21594;BME280;10959;51.328;7.322;2022-10-31T00:36:14;99267.16;;;17.00;67.86
21594;BME280;10959;51.328;7.322;2022-10-31T00:38:41;99266.84;;;17.05;67.87
21594;BME280;10959;51.328;7.322;2022-10-31T00:41:08;99265.09;;;17.04;68.05
21594;BME280;10959;51.328;7.322;2022-10-31T00:43:35;99257.06;;;17.02;67.83
21594;BME280;10959;51.328;7.322;2022-10-31T00:46:01;99252.47;;;17.03;67.76
21594;BME280;10959;51.328;7.322;2022-10-31T00:48:28;99255.28;;;17.01;67.90
21594;BME280;10959;51.328;7.322;2022-10-31T00:50:55;99259.97;;;16.99;67.97
21594;BME280;10959;51.328;7.322;2022-10-31T00:53:23;99253.97;;;16.94;68.07
21594;BME280;10959;51.328;7.322;2022-10-31T00:55:50;99250.28;;;16.95;68.01
21594;BME280;10959;51.328;7.322;2022-10-31T00:58:16;99257.88;;;16.90;68.22
21594;BME280;10959;51.328;7.322;2022-10-31T01:00:43;99259.84;;;16.88;68.06
21594;BME280;10959;51.328;7.322;2022-10-31T01:03:09;99258.78;;;16.90;68.14
21594;BME280;10959;51.328;7.322;2022-10-31T01:05:36;99267.41;;;16.83;68.21
21594;BME280;10959;51.328;7.322;2022-10-31T01:08:02;99261.09;;;16.82;68.46
21594;BME280;10959;51.328;7.322;2022-10-31T01:10:30;99267.41;;;16.83;68.56
21594;BME280;10959;51.328;7.322;2022-10-31T01:12:57;99263.72;;;16.84;68.69
21594;BME280;10959;51.328;7.322;2022-10-31T01:15:23;99263.72;;;16.84;68.53
21594;BME280;10959;51.328;7.322;2022-10-31T01:17:50;99271.31;;;16.79;68.88
21594;BME280;10959;51.328;7.322;2022-10-31T01:20:17;99266.66;;;16.81;68.92
21594;BME280;10959;51.328;7.322;2022-10-31T01:22:44;99267.41;;;16.83;68.92
21594;BME280;10959;51.328;7.322;2022-10-31T01:25:10;99283.94;;;16.80;68.89
21594;BME280;10959;51.328;7.322;2022-10-31T01:27:38;99267.41;;;16.83;68.77
21594;BME280;10959;51.328;7.322;2022-10-31T01:30:05;99292.66;;;16.85;68.97
21594;BME280;10959;51.328;7.322;2022-10-31T01:32:32;99296.34;;;16.84;69.00
21594;BME280;10959;51.328;7.322;2022-10-31T01:34:59;99290.91;;;16.84;69.15
21594;BME280;10959;51.328;7.322;2022-10-31T01:37:25;99294.59;;;16.83;69.35
21594;BME280;10959;51.328;7.322;2022-10-31T01:39:52;99301.81;;;16.84;69.40
21594;BME280;10959;51.328;7.322;2022-10-31T01:42:20;99303.44;;;16.86;69.20
21594;BME280;10959;51.328;7.322;2022-10-31T01:44:54;99298.72;;;16.75;69.40
21594;BME280;10959;51.328;7.322;2022-10-31T01:47:30;99305.91;;;16.76;69.40
21594;BME280;10959;51.328;7.322;2022-10-31T01:50:01;99298.13;;;16.85;69.29
21594;BME280;10959;51.328;7.322;2022-10-31T01:52:31;99287.06;;;16.88;69.55
21594;BME280;10959;51.328;7.322;2022-10-31T01:55:01;99279.44;;;16.93;69.24
21594;BME280;10959;51.328;7.322;2022-10-31T01:57:30;99258.84;;;16.89;69.26
21594;BME280;10959;51.328;7.322;2022-10-31T02:00:01;99271.09;;;16.82;69.34
21594;BME280;10959;51.328;7.322;2022-10-31T02:02:29;99248.38;;;16.83;69.24
21594;BME280;10959;51.328;7.322;2022-10-31T02:04:57;99256.63;;;16.81;69.17
21594;BME280;10959;51.328;7.322;2022-10-31T02:07:30;99248.00;;;16.74;69.47
21594;BME280;10959;51.328;7.322;2022-10-31T02:10:00;99239.34;;;16.82;69.13
21594;BME280;10959;51.328;7.322;2022-10-31T02:12:28;99242.19;;;16.81;69.05
21594;BME280;10959;51.328;7.322;2022-10-31T02:14:56;99241.59;;;16.75;69.45
21594;BME280;10959;51.328;7.322;2022-10-31T02:17:24;99235.59;;;16.70;69.53
21594;BME280;10959;51.328;7.322;2022-10-31T02:19:54;99236.03;;;16.64;68.97
21594;BME280;10959;51.328;7.322;2022-10-31T02:22:26;99229.84;;;16.62;69.26
21594;BME280;10959;51.328;7.322;2022-10-31T02:25:04;99235.13;;;16.51;69.33
21594;BME280;10959;51.328;7.322;2022-10-31T02:27:54;99232.47;;;16.36;69.39
21594;BME280;10959;51.328;7.322;2022-10-31T02:30:30;99230.06;;;16.45;69.21
21594;BME280;10959;51.328;7.322;2022-10-31T02:33:11;99231.66;;;16.34;69.33
21594;BME280;10959;51.328;7.322;2022-10-31T02:35:53;99227.63;;;16.27;69.43
21594;BME280;10959;51.328;7.322;2022-10-31T02:38:36;99229.16;;;16.31;69.14
21594;BME280;10959;51.328;7.322;2022-10-31T02:41:09;99231.31;;;16.26;69.36
21594;BME280;10959;51.328;7.322;2022-10-31T02:43:44;99238.50;;;16.27;69.34
21594;BME280;10959;51.328;7.322;2022-10-31T02:46:18;99231.50;;;16.23;69.27
21594;BME280;10959;51.328;7.322;2022-10-31T02:48:47;99231.13;;;16.29;69.23
21594;BME280;10959;51.328;7.322;2022-10-31T02:51:16;99227.41;;;16.30;69.22
21594;BME280;10959;51.328;7.322;2022-10-31T02:53:43;99236.56;;;16.29;69.37
21594;BME280;10959;51.328;7.322;2022-10-31T02:56:12;99244.50;;;16.32;69.27
21594;BME280;10959;51.328;7.322;2022-10-31T02:58:42;99245.69;;;16.28;69.31
21594;BME280;10959;51.328;7.322;2022-10-31T03:01:31;99245.34;;;16.05;69.34
21594;BME280;10959;51.328;7.322;2022-10-31T03:04:16;99255.56;;;16.02;69.31
21594;BME280;10959;51.328;7.322;2022-10-31T03:06:49;99259.31;;;16.14;69.23
21594;BME280;10959;51.328;7.322;2022-10-31T03:09:23;99264.94;;;16.11;69.46
21594;BME280;10959;51.328;7.322;2022-10-31T03:11:57;99265.16;;;16.08;69.35
21594;BME280;10959;51.328;7.322;2022-10-31T03:14:26;99264.94;;;16.11;69.45
21594;BME280;10959;51.328;7.322;2022-10-31T03:17:00;99257.06;;;16.06;69.71
21594;BME280;10959;51.328;7.322;2022-10-31T03:19:33;99255.25;;;16.06;69.19
21594;BME280;10959;51.328;7.322;2022-10-31T03:22:02;99257.00;;;16.08;68.99
21594;BME280;10959;51.328;7.322;2022-10-31T03:24:35;99267.28;;;16.02;68.86
21594;BME280;10959;51.328;7.322;2022-10-31T03:27:03;99265.31;;;16.04;69.17
21594;BME280;10959;51.328;7.322;2022-10-31T03:29:35;99272.91;;;15.99;69.22
21594;BME280;10959;51.328;7.322;2022-10-31T03:32:05;99265.94;;;15.95;69.27
21594;BME280;10959;51.328;7.322;2022-10-31T03:34:35;99260.69;;;15.92;69.06
21594;BME280;10959;51.328;7.322;2022-10-31T03:37:06;99266.72;;;15.83;69.07
21594;BME280;10959;51.328;7.322;2022-10-31T03:39:34;99262.84;;;15.87;69.28
21594;BME280;10959;51.328;7.322;2022-10-31T03:42:06;99266.72;;;15.83;69.16
21594;BME280;10959;51.328;7.322;2022-10-31T03:44:34;99275.66;;;15.85;69.29
21594;BME280;10959;51.328;7.322;2022-10-31T03:47:02;99265.00;;;15.82;69.19
21594;BME280;10959;51.328;7.322;2022-10-31T03:49:30;99263.03;;;15.84;69.17
21594;BME280;10959;51.328;7.322;2022-10-31T03:52:02;99258.13;;;15.75;69.14
21594;BME280;10959;51.328;7.322;2022-10-31T03:54:36;99268.44;;;15.69;69.26
21594;BME280;10959;51.328;7.322;2022-10-31T03:57:07;99266.69;;;15.68;69.37
21594;BME280;10959;51.328;7.322;2022-10-31T03:59:37;99271.34;;;15.66;69.47
21594;BME280;10959;51.328;7.322;2022-10-31T04:02:10;99258.34;;;15.57;69.08
21594;BME280;10959;51.328;7.322;2022-10-31T04:04:39;99247.28;;;15.60;69.83
21594;BME280;10959;51.328;7.322;2022-10-31T04:07:09;99248.84;;;15.50;70.04
21594;BME280;10959;51.328;7.322;2022-10-31T04:09:38;99251.66;;;15.48;69.94
21594;BME280;10959;51.328;7.322;2022-10-31T04:12:08;99250.00;;;15.46;70.10
21594;BME280;10959;51.328;7.322;2022-10-31T04:14:41;99254.88;;;15.41;70.02
21594;BME280;10959;51.328;7.322;2022-10-31T04:17:11;99248.53;;;15.40;70.31
21594;BME280;10959;51.328;7.322;2022-10-31T04:19:39;99255.06;;;15.37;70.35
21594;BME280;10959;51.328;7.322;2022-10-31T04:22:07;99259.59;;;15.37;70.53
21594;BME280;10959;51.328;7.322;2022-10-31T04:24:33;99248.75;;;15.37;70.53
21594;BME280;10959;51.328;7.322;2022-10-31T04:27:00;99244.22;;;15.37;70.45
21594;BME280;10959;51.328;7.322;2022-10-31T04:29:26;99233.34;;;15.37;70.39
21594;BME280;10959;51.328;7.322;2022-10-31T04:31:53;99231.41;;;15.40;70.26
21594;BME280;10959;51.328;7.322;2022-10-31T04:34:19;99229.66;;;15.38;70.65
21594;BME280;10959;51.328;7.322;2022-10-31T04:36:46;99229.84;;;15.35;70.69
21594;BME280;10959;51.328;7.322;2022-10-31T04:39:13;99228.09;;;15.34;70.74
21594;BME280;10959;51.328;7.322;2022-10-31T04:41:40;99243.59;;;15.32;70.71
21594;BME280;10959;51.328;7.322;2022-10-31T04:44:06;99236.53;;;15.30;70.78
21594;BME280;10959;51.328;7.322;2022-10-31T04:46:33;99235.47;;;15.32;71.04
21594;BME280;10959;51.328;7.322;2022-10-31T04:48:59;99228.09;;;15.34;70.91
21594;BME280;10959;51.328;7.322;2022-10-31T04:51:26;99227.44;;;15.31;70.98
21594;BME280;10959;51.328;7.322;2022-10-31T04:53:52;99220.16;;;15.31;70.57
21594;BME280;10959;51.328;7.322;2022-10-31T04:56:20;99219.38;;;15.29;70.59
21594;BME280;10959;51.328;7.322;2022-10-31T04:58:46;99221.31;;;15.27;70.93
21594;BME280;10959;51.328;7.322;2022-10-31T05:01:13;99225.88;;;15.27;70.71
21594;BME280;10959;51.328;7.322;2022-10-31T05:03:39;99222.28;;;15.26;70.99
21594;BME280;10959;51.328;7.322;2022-10-31T05:06:06;99215.41;;;15.20;70.87
21594;BME280;10959;51.328;7.322;2022-10-31T05:08:32;99205.41;;;15.21;71.03
21594;BME280;10959;51.328;7.322;2022-10-31T05:10:59;99215.41;;;15.20;71.13
21594;BME280;10959;51.328;7.322;2022-10-31T05:13:27;99214.72;;;15.17;70.77
21594;BME280;10959;51.328;7.322;2022-10-31T05:15:54;99222.84;;;15.17;70.97
21594;BME280;10959;51.328;7.322;2022-10-31T05:18:20;99211.25;;;15.15;71.21
21594;BME280;10959;51.328;7.322;2022-10-31T05:20:47;99205.81;;;15.15;70.75
21594;BME280;10959;51.328;7.322;2022-10-31T05:23:13;99207.53;;;15.16;71.02
21594;BME280;10959;51.328;7.322;2022-10-31T05:25:40;99213.84;;;15.16;71.23
21594;BME280;10959;51.328;7.322;2022-10-31T05:28:07;99202.09;;;15.16;71.31
21594;BME280;10959;51.328;7.322;2022-10-31T05:30:35;99199.59;;;15.13;70.92
21594;BME280;10959;51.328;7.322;2022-10-31T05:33:01;99187.78;;;15.14;70.95
21594;BME280;10959;51.328;7.322;2022-10-31T05:35:30;99189.53;;;15.15;71.30
21594;BME280;10959;51.328;7.322;2022-10-31T05:37:57;99194.06;;;15.14;71.12
21594;BME280;10959;51.328;7.322;2022-10-31T05:40:24;99189.53;;;15.15;71.15
21594;BME280;10959;51.328;7.322;2022-10-31T05:42:52;99199.41;;;15.16;71.23
21594;BME280;10959;51.328;7.322;2022-10-31T05:45:19;99190.50;;;15.14;71.25
21594;BME280;10959;51.328;7.322;2022-10-31T05:47:51;99194.84;;;15.02;71.06
21594;BME280;10959;51.328;7.322;2022-10-31T05:50:18;99199.03;;;15.08;71.52
21594;BME280;10959;51.328;7.322;2022-10-31T05:52:45;99188.19;;;15.08;71.36
21594;BME280;10959;51.328;7.322;2022-10-31T05:55:11;99193.59;;;15.08;71.16
21594;BME280;10959;51.328;7.322;2022-10-31T05:57:38;99200.56;;;15.12;71.10
21594;BME280;10959;51.328;7.322;2022-10-31T06:00:05;99191.44;;;15.13;71.26
21594;BME280;10959;51.328;7.322;2022-10-31T06:02:32;99194.47;;;15.08;71.42
21594;BME280;10959;51.328;7.322;2022-10-31T06:05:01;99192.59;;;15.09;71.17
21594;BME280;10959;51.328;7.322;2022-10-31T06:07:32;99185.06;;;14.99;71.18
21594;BME280;10959;51.328;7.322;2022-10-31T06:09:58;99184.88;;;15.02;71.03
21594;BME280;10959;51.328;7.322;2022-10-31T06:12:25;99190.47;;;14.99;71.46
21594;BME280;10959;51.328;7.322;2022-10-31T06:14:51;99188.94;;;14.95;71.46
21594;BME280;10959;51.328;7.322;2022-10-31T06:17:18;99183.69;;;14.92;71.21
21594;BME280;10959;51.328;7.322;2022-10-31T06:19:44;99184.75;;;14.90;71.36
21594;BME280;10959;51.328;7.322;2022-10-31T06:22:12;99189.31;;;14.89;71.50
21594;BME280;10959;51.328;7.322;2022-10-31T06:24:39;99184.84;;;14.88;71.45
21594;BME280;10959;51.328;7.322;2022-10-31T06:27:05;99190.25;;;14.88;71.09
21594;BME280;10959;51.328;7.322;2022-10-31T06:29:32;99182.44;;;14.83;71.39
21594;BME280;10959;51.328;7.322;2022-10-31T06:31:58;99176.91;;;14.85;71.28
21594;BME280;10959;51.328;7.322;2022-10-31T06:34:25;99185.13;;;14.83;71.33
21594;BME280;10959;51.328;7.322;2022-10-31T06:36:51;99193.19;;;14.85;71.52
21594;BME280;10959;51.328;7.322;2022-10-31T06:39:19;99185.81;;;14.87;71.22
21594;BME280;10959;51.328;7.322;2022-10-31T06:41:47;99184.84;;;14.88;71.19
21594;BME280;10959;51.328;7.322;2022-10-31T06:44:13;99185.81;;;14.87;71.43
21594;BME280;10959;51.328;7.322;2022-10-31T06:46:40;99194.63;;;14.91;71.25
21594;BME280;10959;51.328;7.322;2022-10-31T06:49:06;99190.16;;;14.90;71.47
21594;BME280;10959;51.328;7.322;2022-10-31T06:51:33;99201.88;;;14.90;71.33
21594;BME280;10959;51.328;7.322;2022-10-31T06:53:59;99187.38;;;14.91;71.46
21594;BME280;10959;51.328;7.322;2022-10-31T06:56:27;99192.78;;;14.91;71.80
21594;BME280;10959;51.328;7.322;2022-10-31T06:58:53;99197.16;;;14.94;71.71
21594;BME280;10959;51.328;7.322;2022-10-31T07:01:20;99194.34;;;14.95;71.59
21594;BME280;10959;51.328;7.322;2022-10-31T07:03:47;99195.22;;;14.96;71.92
21594;BME280;10959;51.328;7.322;2022-10-31T07:06:14;99200.44;;;14.99;71.47
21594;BME280;10959;51.328;7.322;2022-10-31T07:08:40;99205.69;;;15.02;71.88
21594;BME280;10959;51.328;7.322;2022-10-31T07:11:07;99203.09;;;15.00;71.89
21594;BME280;10959;51.328;7.322;2022-10-31T07:13:35;99202.56;;;14.94;72.25
21594;BME280;10959;51.328;7.322;2022-10-31T07:16:03;99202.69;;;14.92;72.23
21594;BME280;10959;51.328;7.322;2022-10-31T07:18:32;99198.00;;;14.94;72.35
21594;BME280;10959;51.328;7.322;2022-10-31T07:20:58;99203.09;;;15.00;72.20
21594;BME280;10959;51.328;7.322;2022-10-31T07:23:25;99205.59;;;15.03;72.36
21594;BME280;10959;51.328;7.322;2022-10-31T07:25:54;99195.72;;;15.02;72.17
21594;BME280;10959;51.328;7.322;2022-10-31T07:28:21;99200.94;;;15.06;72.35
21594;BME280;10959;51.328;7.322;2022-10-31T07:30:51;99204.25;;;15.11;71.97
21594;BME280;10959;51.328;7.322;2022-10-31T07:33:17;99207.53;;;15.16;71.88
21594;BME280;10959;51.328;7.322;2022-10-31T07:35:44;99200.28;;;15.16;71.99
21594;BME280;10959;51.328;7.322;2022-10-31T07:38:12;99200.38;;;15.15;71.96
21594;BME280;10959;51.328;7.322;2022-10-31T07:40:40;99197.78;;;15.13;71.76
21594;BME280;10959;51.328;7.322;2022-10-31T07:43:07;99204.06;;;15.14;72.10
21594;BME280;10959;51.328;7.322;2022-10-31T07:45:34;99204.66;;;15.19;71.70
21594;BME280;10959;51.328;7.322;2022-10-31T07:48:02;99207.44;;;15.17;72.00
21594;BME280;10959;51.328;7.322;2022-10-31T07:50:32;99197.47;;;15.18;72.07
21594;BME280;10959;51.328;7.322;2022-10-31T07:53:00;99195.63;;;15.18;72.15
21594;BME280;10959;51.328;7.322;2022-10-31T07:55:27;99196.31;;;15.22;71.95
21594;BME280;10959;51.328;7.322;2022-10-31T07:57:58;99189.53;;;15.15;72.32
21594;BME280;10959;51.328;7.322;2022-10-31T08:00:25;99198.84;;;15.25;72.42
21594;BME280;10959;51.328;7.322;2022-10-31T08:02:59;99196.53;;;15.19;72.47
21594;BME280;10959;51.328;7.322;2022-10-31T08:05:27;99204.66;;;15.33;72.22
21594;BME280;10959;51.328;7.322;2022-10-31T08:07:54;99202.50;;;15.38;72.51
21594;BME280;10959;51.328;7.322;2022-10-31T08:10:21;99205.81;;;15.44;72.35
21594;BME280;10959;51.328;7.322;2022-10-31T08:12:55;99209.69;;;15.40;71.96
21594;BME280;10959;51.328;7.322;2022-10-31T08:15:21;99209.78;;;15.52;72.28
21594;BME280;10959;51.328;7.322;2022-10-31T08:17:48;99213.75;;;15.61;71.90
21594;BME280;10959;51.328;7.322;2022-10-31T08:20:14;99211.84;;;15.63;71.98
21594;BME280;10959;51.328;7.322;2022-10-31T08:22:42;99208.91;;;15.66;72.10
21594;BME280;10959;51.328;7.322;2022-10-31T08:25:09;99217.25;;;15.63;72.53
21594;BME280;10959;51.328;7.322;2022-10-31T08:27:35;99217.72;;;15.70;72.44
21594;BME280;10959;51.328;7.322;2022-10-31T08:30:02;99211.22;;;15.72;72.63
21594;BME280;10959;51.328;7.322;2022-10-31T08:32:28;99210.84;;;15.79;72.84
21594;BME280;10959;51.328;7.322;2022-10-31T08:34:54;99210.47;;;15.85;72.77
21594;BME280;10959;51.328;7.322;2022-10-31T08:37:21;99207.94;;;15.96;72.74
21594;BME280;10959;51.328;7.322;2022-10-31T08:39:48;99198.19;;;16.06;72.70
21594;BME280;10959;51.328;7.322;2022-10-31T08:42:15;99194.97;;;16.14;72.47
21594;BME280;10959;51.328;7.322;2022-10-31T08:44:41;99197.19;;;16.22;72.54
21594;BME280;10959;51.328;7.322;2022-10-31T08:47:08;99201.22;;;16.29;72.25
21594;BME280;10959;51.328;7.322;2022-10-31T08:49:34;99201.56;;;16.37;72.34
21594;BME280;10959;51.328;7.322;2022-10-31T08:52:00;99197.47;;;16.45;72.33
21594;BME280;10959;51.328;7.322;2022-10-31T08:54:27;99192.47;;;16.51;72.36
21594;BME280;10959;51.328;7.322;2022-10-31T08:56:55;99196.09;;;16.52;72.58
21594;BME280;10959;51.328;7.322;2022-10-31T08:59:22;99190.97;;;16.60;72.56
21594;BME280;10959;51.328;7.322;2022-10-31T09:01:48;99190.38;;;16.69;72.43
21594;BME280;10959;51.328;7.322;2022-10-31T09:04:15;99188.19;;;16.74;72.34
21594;BME280;10959;51.328;7.322;2022-10-31T09:06:41;99192.31;;;16.80;72.46
21594;BME280;10959;51.328;7.322;2022-10-31T09:09:08;99187.34;;;16.87;72.71
21594;BME280;10959;51.328;7.322;2022-10-31T09:11:34;99180.41;;;16.96;72.68
21594;BME280;10959;51.328;7.322;2022-10-31T09:14:02;99178.69;;;17.07;72.63
21594;BME280;10959;51.328;7.322;2022-10-31T09:16:29;99179.00;;;17.16;72.25
21594;BME280;10959;51.328;7.322;2022-10-31T09:18:55;99180.31;;;17.23;72.36
21594;BME280;10959;51.328;7.322;2022-10-31T09:21:21;99180.41;;;17.34;72.81
21594;BME280;10959;51.328;7.322;2022-10-31T09:23:48;99175.31;;;17.42;72.96
21594;BME280;10959;51.328;7.322;2022-10-31T09:26:14;99172.69;;;17.54;72.48
21594;BME280;10959;51.328;7.322;2022-10-31T09:28:41;99164.72;;;17.64;72.19
21594;BME280;10959;51.328;7.322;2022-10-31T09:31:08;99169.69;;;17.70;72.13
21594;BME280;10959;51.328;7.322;2022-10-31T09:33:35;99163.16;;;17.72;71.58
21594;BME280;10959;51.328;7.322;2022-10-31T09:36:02;99156.75;;;17.73;71.68
21594;BME280;10959;51.328;7.322;2022-10-31T09:38:29;99156.50;;;17.76;71.76
21594;BME280;10959;51.328;7.322;2022-10-31T09:41:04;99159.63;;;17.83;71.55
21594;BME280;10959;51.328;7.322;2022-10-31T09:43:39;99160.75;;;17.81;71.27
21594;BME280;10959;51.328;7.322;2022-10-31T09:46:14;99160.28;;;17.87;70.86
21594;BME280;10959;51.328;7.322;2022-10-31T09:48:57;99155.31;;;17.81;70.69
21594;BME280;10959;51.328;7.322;2022-10-31T09:51:32;99157.25;;;17.91;70.79
21594;BME280;10959;51.328;7.322;2022-10-31T09:54:02;99158.13;;;17.92;70.73
21594;BME280;10959;51.328;7.322;2022-10-31T09:56:33;99157.91;;;17.95;70.62
21594;BME280;10959;51.328;7.322;2022-10-31T09:59:03;99153.97;;;17.99;70.55
21594;BME280;10959;51.328;7.322;2022-10-31T10:01:47;99151.13;;;17.88;70.60
21594;BME280;10959;51.328;7.322;2022-10-31T10:04:27;99151.00;;;18.02;70.61
21594;BME280;10959;51.328;7.322;2022-10-31T10:06:57;99149.56;;;18.09;70.66
21594;BME280;10959;51.328;7.322;2022-10-31T10:09:26;99148.78;;;18.07;70.33
21594;BME280;10959;51.328;7.322;2022-10-31T10:12:01;99148.50;;;17.99;70.54
21594;BME280;10959;51.328;7.322;2022-10-31T10:14:47;99147.41;;;17.89;70.65
21594;BME280;10959;51.328;7.322;2022-10-31T10:17:26;99138.81;;;17.95;71.03
21594;BME280;10959;51.328;7.322;2022-10-31T10:20:11;99141.09;;;18.01;71.00
21594;BME280;10959;51.328;7.322;2022-10-31T10:22:46;99137.09;;;18.18;70.75
21594;BME280;10959;51.328;7.322;2022-10-31T10:25:20;99135.28;;;18.30;70.56
21594;BME280;10959;51.328;7.322;2022-10-31T10:27:56;99131.09;;;18.37;70.53
21594;BME280;10959;51.328;7.322;2022-10-31T10:30:32;99125.91;;;18.45;70.38
21594;BME280;10959;51.328;7.322;2022-10-31T10:33:04;99122.00;;;18.61;69.99
21594;BME280;10959;51.328;7.322;2022-10-31T10:35:33;99117.31;;;18.74;69.98
21594;BME280;10959;51.328;7.322;2022-10-31T10:38:03;99120.06;;;18.86;69.89
21594;BME280;10959;51.328;7.322;2022-10-31T10:40:30;99120.84;;;18.99;70.13
21594;BME280;10959;51.328;7.322;2022-10-31T10:43:21;99108.22;;;18.87;70.01
21594;BME280;10959;51.328;7.322;2022-10-31T10:45:50;99101.66;;;19.23;69.30
21594;BME280;10959;51.328;7.322;2022-10-31T10:48:42;99095.56;;;19.42;69.34
21594;BME280;10959;51.328;7.322;2022-10-31T10:51:19;99099.28;;;19.64;68.64
21594;BME280;10959;51.328;7.322;2022-10-31T10:53:54;99087.31;;;19.88;67.71
21594;BME280;10959;51.328;7.322;2022-10-31T10:56:36;99087.28;;;19.99;67.59
21594;BME280;10959;51.328;7.322;2022-10-31T10:59:09;99091.91;;;20.31;67.10
21594;BME280;10959;51.328;7.322;2022-10-31T11:01:38;99078.88;;;20.44;65.84
21594;BME280;10959;51.328;7.322;2022-10-31T11:04:21;99076.16;;;20.44;65.69
21594;BME280;10959;51.328;7.322;2022-10-31T11:06:56;99069.47;;;20.69;65.57
21594;BME280;10959;51.328;7.322;2022-10-31T11:09:23;99066.44;;;20.94;64.27
21594;BME280;10959;51.328;7.322;2022-10-31T11:11:50;99064.59;;;21.04;62.80
21594;BME280;10959;51.328;7.322;2022-10-31T11:14:18;99065.06;;;21.09;62.69
21594;BME280;10959;51.328;7.322;2022-10-31T11:16:47;99059.84;;;21.06;61.97
21594;BME280;10959;51.328;7.322;2022-10-31T11:19:18;99052.38;;;21.08;62.85
21594;BME280;10959;51.328;7.322;2022-10-31T11:21:46;99040.03;;;21.23;63.45
21594;BME280;10959;51.328;7.322;2022-10-31T11:24:15;99042.69;;;21.35;63.10
21594;BME280;10959;51.328;7.322;2022-10-31T11:26:45;99038.31;;;21.22;61.32
21594;BME280;10959;51.328;7.322;2022-10-31T11:29:14;99036.28;;;21.24;62.61
21594;BME280;10959;51.328;7.322;2022-10-31T11:31:42;99036.56;;;21.21;62.44
21594;BME280;10959;51.328;7.322;2022-10-31T11:34:15;99033.72;;;21.02;61.78
21594;BME280;10959;51.328;7.322;2022-10-31T11:36:45;99023.16;;;21.18;62.18
21594;BME280;10959;51.328;7.322;2022-10-31T11:39:17;99001.06;;;21.10;62.43
21594;BME280;10959;51.328;7.322;2022-10-31T11:41:45;99004.53;;;21.12;61.17
21594;BME280;10959;51.328;7.322;2022-10-31T11:44:17;99016.69;;;21.19;61.60
21594;BME280;10959;51.328;7.322;2022-10-31T11:46:48;99015.81;;;21.29;61.45
21594;BME280;10959;51.328;7.322;2022-10-31T11:49:17;99011.97;;;21.41;60.98
21594;BME280;10959;51.328;7.322;2022-10-31T11:51:49;99011.53;;;21.36;59.72
21594;BME280;10959;51.328;7.322;2022-10-31T11:54:22;99007.50;;;21.40;59.17
21594;BME280;10959;51.328;7.322;2022-10-31T11:56:50;99000.72;;;21.44;58.98
21594;BME280;10959;51.328;7.322;2022-10-31T11:59:21;98987.50;;;21.49;59.34
21594;BME280;10959;51.328;7.322;2022-10-31T12:01:49;98994.81;;;21.49;58.85
21594;BME280;10959;51.328;7.322;2022-10-31T12:04:16;98992.00;;;21.60;58.51
21594;BME280;10959;51.328;7.322;2022-10-31T12:06:44;98988.66;;;21.66;58.83
21594;BME280;10959;51.328;7.322;2022-10-31T12:09:28;98983.28;;;21.45;58.29
21594;BME280;10959;51.328;7.322;2022-10-31T12:12:08;98976.66;;;21.38;57.32
21594;BME280;10959;51.328;7.322;2022-10-31T12:14:43;98976.53;;;21.49;57.62
21594;BME280;10959;51.328;7.322;2022-10-31T12:17:15;98967.63;;;21.67;57.48
21594;BME280;10959;51.328;7.322;2022-10-31T12:19:54;98969.47;;;21.66;57.22
21594;BME280;10959;51.328;7.322;2022-10-31T12:22:33;98965.19;;;21.64;56.79
21594;BME280;10959;51.328;7.322;2022-10-31T12:25:13;98957.38;;;21.69;56.83
21594;BME280;10959;51.328;7.322;2022-10-31T12:28:00;98957.66;;;21.66;57.50
21594;BME280;10959;51.328;7.322;2022-10-31T12:30:39;98952.34;;;21.84;56.88
21594;BME280;10959;51.328;7.322;2022-10-31T12:33:19;98940.94;;;21.88;56.77
21594;BME280;10959;51.328;7.322;2022-10-31T12:35:56;98936.91;;;21.92;55.61
21594;BME280;10959;51.328;7.322;2022-10-31T12:38:40;98940.94;;;21.88;56.15
21594;BME280;10959;51.328;7.322;2022-10-31T12:41:20;98941.22;;;21.75;55.51
21594;BME280;10959;51.328;7.322;2022-10-31T12:43:53;98939.50;;;21.94;56.20
21594;BME280;10959;51.328;7.322;2022-10-31T12:46:34;98930.53;;;22.02;56.56
21594;BME280;10959;51.328;7.322;2022-10-31T12:49:12;98922.03;;;22.05;57.16
21594;BME280;10959;51.328;7.322;2022-10-31T12:51:53;98916.94;;;22.10;55.89
21594;BME280;10959;51.328;7.322;2022-10-31T12:54:39;98908.84;;;22.18;56.18
21594;BME280;10959;51.328;7.322;2022-10-31T12:57:16;98912.31;;;22.20;54.95
21594;BME280;10959;51.328;7.322;2022-10-31T12:59:48;98898.16;;;22.35;56.61
21594;BME280;10959;51.328;7.322;2022-10-31T13:02:19;98898.72;;;22.38;55.98
21594;BME280;10959;51.328;7.322;2022-10-31T13:04:51;98899.88;;;22.36;54.88
21594;BME280;10959;51.328;7.322;2022-10-31T13:07:23;98893.97;;;22.31;55.01
21594;BME280;10959;51.328;7.322;2022-10-31T13:09:56;98883.44;;;22.16;54.45
21594;BME280;10959;51.328;7.322;2022-10-31T13:12:27;98880.00;;;22.14;54.75
21594;BME280;10959;51.328;7.322;2022-10-31T13:14:57;98883.75;;;22.13;53.88